Time;durP1;ratioP1;P1;durP2;ratioP2;P2;SDS_P1;SDS_P2;PMS_P1;PMS_P2;Temp;Humidity;BMP_temperature;BMP_pressure;BME280_temperature;BME280_humidity;BME280_pressure;Samples;Min_cycle;Max_cycle;Signal;HPM_P1;HPM_P2
2022/09/07 00:00:30;;;;;;;15.48;4.25;;;;;;;;;;4844156;29;20085;-78
2022/09/07 00:02:56;;;;;;;19.10;4.22;;;;;;;;;;4844744;29;20076;-78
2022/09/07 00:05:23;;;;;;;14.30;4.45;;;;;;;;;;4844205;29;20057;-77
2022/09/07 00:07:49;;;;;;;17.52;4.75;;;;;;;;;;4843800;29;20481;-77
2022/09/07 00:10:15;;;;;;;15.75;5.10;;;;;;;;;;4844287;29;20053;-77
2022/09/07 00:12:41;;;;;;;17.98;4.47;;;;;;;;;;4844324;29;20053;-77
2022/09/07 00:15:10;;;;;;;17.02;4.63;;;;;;;;;;4843948;29;20544;-77
2022/09/07 00:17:36;;;;;;;15.57;4.68;;;;;;;;;;4844269;29;20469;-77
2022/09/07 00:20:03;;;;;;;12.90;4.65;;;;;;;;;;4843856;29;20405;-77
2022/09/07 00:22:29;;;;;;;12.95;4.00;;;;;;;;;;4843680;29;20555;-77
2022/09/07 00:24:56;;;;;;;13.25;4.43;;;;;;;;;;4844097;29;20057;-77
2022/09/07 00:27:22;;;;;;;11.02;3.97;;;;;;;;;;4843694;29;20405;-77
2022/09/07 00:29:48;;;;;;;14.40;4.60;;;;;;;;;;4844087;29;20126;-77
2022/09/07 00:32:14;;;;;;;12.73;4.53;;;;;;;;;;4844424;29;20050;-77
2022/09/07 00:34:41;;;;;;;14.85;4.53;;;;;;;;;;4843910;29;20141;-77
2022/09/07 00:37:07;;;;;;;15.57;4.43;;;;;;;;;;4843806;29;20129;-77
2022/09/07 00:39:33;;;;;;;15.48;4.07;;;;;;;;;;4843652;29;20056;-77
2022/09/07 00:42:00;;;;;;;13.52;4.57;;;;;;;;;;4843327;29;20077;-77
2022/09/07 00:44:44;;;;;;;17.08;4.90;;;;;;;;;;4843378;29;20088;-77
2022/09/07 00:47:26;;;;;;;16.65;5.18;;;;;;;;;;4844024;29;20051;-77
2022/09/07 00:49:56;;;;;;;15.82;4.80;;;;;;;;;;4843960;29;20054;-77
2022/09/07 00:52:23;;;;;;;20.02;5.18;;;;;;;;;;4843365;29;20125;-77
2022/09/07 00:54:53;;;;;;;22.55;4.20;;;;;;;;;;4843592;29;20389;-77
2022/09/07 00:57:20;;;;;;;16.17;3.92;;;;;;;;;;4843797;29;20041;-77
2022/09/07 00:59:50;;;;;;;12.32;4.38;;;;;;;;;;4843566;29;20124;-77
2022/09/07 01:02:16;;;;;;;;;;;;;;;;;;4844701;29;20062;-77
2022/09/07 01:04:47;;;;;;;16.13;4.55;;;;;;;;;;4843695;29;19939;-77
2022/09/07 01:07:14;;;;;;;13.10;4.38;;;;;;;;;;4857495;29;20532;-77
2022/09/07 01:09:41;;;;;;;23.63;4.90;;;;;;;;;;4843641;29;20114;-77
2022/09/07 01:12:07;;;;;;;18.98;5.00;;;;;;;;;;4843384;29;20073;-77
2022/09/07 01:14:39;;;;;;;15.95;5.07;;;;;;;;;;4843670;29;20046;-77
2022/09/07 01:17:24;;;;;;;15.25;4.68;;;;;;;;;;4843633;29;20044;-77
2022/09/07 01:19:50;;;;;;;17.02;4.90;;;;;;;;;;4843560;29;20049;-77
2022/09/07 01:22:22;;;;;;;14.23;3.97;;;;;;;;;;4843610;29;20054;-77
2022/09/07 01:24:55;;;;;;;13.35;3.97;;;;;;;;;;4843560;29;20090;-77
2022/09/07 01:27:21;;;;;;;14.57;4.35;;;;;;;;;;4842935;29;20049;-77
2022/09/07 01:29:58;;;;;;;18.67;4.82;;;;;;;;;;4843483;29;20046;-77
2022/09/07 01:32:39;;;;;;;15.80;4.45;;;;;;;;;;4844271;29;20041;-77
2022/09/07 01:35:09;;;;;;;15.65;4.32;;;;;;;;;;4843433;29;20054;-77
2022/09/07 01:37:42;;;;;;;10.63;3.90;;;;;;;;;;4843167;29;20057;-77
2022/09/07 01:40:15;;;;;;;17.73;4.30;;;;;;;;;;4843162;29;20068;-77
2022/09/07 01:42:47;;;;;;;22.40;4.40;;;;;;;;;;4843681;29;20050;-77
2022/09/07 01:45:15;;;;;;;13.93;4.47;;;;;;;;;;4843654;29;20062;-77
2022/09/07 01:47:46;;;;;;;17.48;4.47;;;;;;;;;;4843467;29;20057;-77
2022/09/07 01:50:16;;;;;;;13.52;4.03;;;;;;;;;;4843532;29;20064;-77
2022/09/07 01:52:42;;;;;;;16.30;5.20;;;;;;;;;;4843278;29;20049;-77
2022/09/07 01:55:15;;;;;;;14.73;4.38;;;;;;;;;;4843557;29;20788;-77
2022/09/07 01:57:43;;;;;;;14.15;3.83;;;;;;;;;;4844110;29;20053;-77
2022/09/07 02:00:12;;;;;;;10.88;3.83;;;;;;;;;;4846950;29;20069;-77
2022/09/07 02:02:58;;;;;;;12.57;3.90;;;;;;;;;;4846881;29;20049;-77
2022/09/07 02:05:30;;;;;;;19.67;4.72;;;;;;;;;;4846727;29;20046;-77
2022/09/07 02:07:56;;;;;;;19.33;4.78;;;;;;;;;;4846245;29;20057;-77
2022/09/07 02:10:25;;;;;;;13.77;4.15;;;;;;;;;;4846800;29;20053;-77
2022/09/07 02:12:58;;;;;;;20.65;4.40;;;;;;;;;;4847150;29;20054;-78
2022/09/07 02:15:31;;;;;;;12.80;4.15;;;;;;;;;;4846271;29;20066;-77
2022/09/07 02:18:02;;;;;;;13.15;4.32;;;;;;;;;;4846887;29;20057;-78
2022/09/07 02:20:38;;;;;;;18.92;4.32;;;;;;;;;;4846668;29;20187;-77
2022/09/07 02:23:07;;;;;;;14.60;4.50;;;;;;;;;;4846468;29;20081;-77
2022/09/07 02:25:36;;;;;;;14.30;4.25;;;;;;;;;;4846151;29;20081;-77
2022/09/07 02:28:10;;;;;;;14.70;4.47;;;;;;;;;;4846226;29;20077;-77
2022/09/07 02:30:37;;;;;;;12.20;5.03;;;;;;;;;;4846256;29;20061;-77
2022/09/07 02:33:03;;;;;;;18.15;4.05;;;;;;;;;;4846361;29;20042;-77
2022/09/07 02:35:30;;;;;;;12.15;4.85;;;;;;;;;;4846202;29;20037;-77
2022/09/07 02:37:56;;;;;;;13.77;4.35;;;;;;;;;;4846077;29;20183;-77
2022/09/07 02:40:22;;;;;;;10.32;4.10;;;;;;;;;;4846279;29;20045;-77
2022/09/07 02:42:48;;;;;;;16.83;4.28;;;;;;;;;;4846341;29;20128;-77
2022/09/07 02:45:15;;;;;;;13.60;3.97;;;;;;;;;;4845763;29;20557;-77
2022/09/07 02:47:50;;;;;;;14.90;4.63;;;;;;;;;;4845650;29;20047;-77
2022/09/07 02:50:26;;;;;;;16.67;4.47;;;;;;;;;;4845471;29;20049;-77
2022/09/07 02:53:10;;;;;;;10.48;3.60;;;;;;;;;;4845636;29;20046;-77
2022/09/07 02:55:39;;;;;;;13.45;4.50;;;;;;;;;;4845655;29;20053;-77
2022/09/07 02:58:23;;;;;;;13.45;4.60;;;;;;;;;;4845526;29;20057;-77
2022/09/07 03:01:09;;;;;;;18.55;5.35;;;;;;;;;;4845594;29;20049;-77
2022/09/07 03:03:54;;;;;;;19.30;4.63;;;;;;;;;;4844012;29;20125;-77
2022/09/07 03:06:25;;;;;;;10.70;4.72;;;;;;;;;;4845432;29;20073;-77
2022/09/07 03:08:54;;;;;;;17.77;5.22;;;;;;;;;;4845138;29;20061;-76
2022/09/07 03:11:20;;;;;;;11.43;4.07;;;;;;;;;;4844833;29;20224;-78
2022/09/07 03:13:46;;;;;;;14.07;4.95;;;;;;;;;;4845284;29;20085;-77
2022/09/07 03:16:13;;;;;;;14.10;4.18;;;;;;;;;;4845022;29;20072;-77
2022/09/07 03:18:40;;;;;;;13.25;4.07;;;;;;;;;;4845162;29;20053;-77
2022/09/07 03:21:06;;;;;;;12.30;3.90;;;;;;;;;;4845501;29;20053;-77
2022/09/07 03:23:32;;;;;;;15.50;5.22;;;;;;;;;;4844835;29;20045;-77
2022/09/07 03:25:58;;;;;;;9.45;3.35;;;;;;;;;;4845356;29;20053;-77
2022/09/07 03:28:24;;;;;;;16.67;3.97;;;;;;;;;;4844714;29;20057;-77
2022/09/07 03:30:50;;;;;;;13.30;3.20;;;;;;;;;;4844928;29;20505;-77
2022/09/07 03:33:17;;;;;;;10.15;3.63;;;;;;;;;;4844885;29;20038;-77
2022/09/07 03:35:44;;;;;;;11.50;3.35;;;;;;;;;;4844921;29;20045;-77
2022/09/07 03:38:10;;;;;;;10.65;2.72;;;;;;;;;;4844653;29;20129;-77
2022/09/07 03:40:36;;;;;;;11.75;3.10;;;;;;;;;;4844808;29;20038;-77
2022/09/07 03:43:02;;;;;;;9.90;3.53;;;;;;;;;;4844741;29;20564;-77
2022/09/07 03:45:28;;;;;;;9.50;3.17;;;;;;;;;;4844854;29;20452;-77
2022/09/07 03:47:54;;;;;;;11.50;3.65;;;;;;;;;;4844620;29;20046;-77
2022/09/07 03:50:20;;;;;;;12.38;3.40;;;;;;;;;;4844932;29;20053;-77
2022/09/07 03:52:47;;;;;;;10.40;3.67;;;;;;;;;;4844478;29;20103;-77
2022/09/07 03:55:13;;;;;;;10.40;3.33;;;;;;;;;;4844657;29;20128;-77
2022/09/07 03:57:39;;;;;;;12.77;3.22;;;;;;;;;;4845320;29;20080;-77
2022/09/07 04:00:06;;;;;;;11.05;3.30;;;;;;;;;;4844900;29;20069;-77
2022/09/07 04:02:32;;;;;;;8.50;3.38;;;;;;;;;;4843570;29;20182;-77
2022/09/07 04:04:58;;;;;;;7.47;3.10;;;;;;;;;;4844425;29;20050;-78
2022/09/07 04:07:24;;;;;;;8.57;3.28;;;;;;;;;;4844691;29;20109;-75
2022/09/07 04:09:50;;;;;;;11.07;3.40;;;;;;;;;;4844312;29;20505;-77
2022/09/07 04:12:16;;;;;;;9.07;3.40;;;;;;;;;;4844071;29;20045;-77
2022/09/07 04:14:43;;;;;;;7.85;3.05;;;;;;;;;;4844674;29;20038;-76
2022/09/07 04:17:09;;;;;;;9.52;3.00;;;;;;;;;;4844736;29;20041;-77
2022/09/07 04:19:35;;;;;;;14.88;3.35;;;;;;;;;;4844179;29;20045;-77
2022/09/07 04:22:01;;;;;;;10.85;3.08;;;;;;;;;;4844321;29;20102;-77
2022/09/07 04:24:27;;;;;;;7.63;3.03;;;;;;;;;;4844375;29;20049;-77
2022/09/07 04:26:54;;;;;;;8.25;3.03;;;;;;;;;;4844672;29;20129;-77
2022/09/07 04:29:20;;;;;;;10.45;3.08;;;;;;;;;;4844181;29;20493;-77
2022/09/07 04:31:46;;;;;;;6.18;2.78;;;;;;;;;;4844534;29;20486;-77
2022/09/07 04:34:13;;;;;;;7.18;3.10;;;;;;;;;;4844452;29;20038;-78
2022/09/07 04:36:39;;;;;;;12.25;3.08;;;;;;;;;;4857238;29;20061;-77
2022/09/07 04:39:05;;;;;;;7.25;3.33;;;;;;;;;;4842319;29;20053;-77
2022/09/07 04:41:33;;;;;;;10.90;3.15;;;;;;;;;;4843452;29;20497;-77
2022/09/07 04:44:00;;;;;;;9.52;3.00;;;;;;;;;;4843040;29;20081;-77
2022/09/07 04:46:32;;;;;;;9.57;2.90;;;;;;;;;;4842704;29;20132;-78
2022/09/07 04:48:59;;;;;;;9.30;3.33;;;;;;;;;;4843664;29;20045;-77
2022/09/07 04:51:27;;;;;;;9.52;3.15;;;;;;;;;;4843602;29;20042;-77
2022/09/07 04:53:54;;;;;;;10.00;3.40;;;;;;;;;;4843490;29;20074;-77
2022/09/07 04:56:21;;;;;;;12.30;3.88;;;;;;;;;;4843744;29;20046;-77
2022/09/07 04:58:47;;;;;;;8.48;3.17;;;;;;;;;;4843386;29;20046;-77
2022/09/07 05:01:21;;;;;;;9.63;3.13;;;;;;;;;;4843870;29;20049;-77
2022/09/07 05:03:47;;;;;;;10.55;3.58;;;;;;;;;;4843818;29;20076;-77
2022/09/07 05:06:14;;;;;;;8.82;3.13;;;;;;;;;;4843192;29;20405;-77
2022/09/07 05:08:41;;;;;;;8.90;3.38;;;;;;;;;;4843595;29;20081;-77
2022/09/07 05:11:08;;;;;;;10.38;3.03;;;;;;;;;;4843489;29;20074;-77
2022/09/07 05:13:34;;;;;;;8.68;3.00;;;;;;;;;;4844103;29;20050;-77
2022/09/07 05:16:07;;;;;;;10.50;2.95;;;;;;;;;;4843657;29;20073;-77
2022/09/07 05:18:33;;;;;;;8.98;3.17;;;;;;;;;;4844076;29;20050;-77
2022/09/07 05:21:16;;;;;;;12.65;3.42;;;;;;;;;;4843542;29;20037;-77
2022/09/07 05:23:42;;;;;;;9.60;3.08;;;;;;;;;;4843518;29;20046;-77
2022/09/07 05:26:09;;;;;;;9.60;3.00;;;;;;;;;;4843499;29;20046;-77
2022/09/07 05:28:35;;;;;;;8.18;3.30;;;;;;;;;;4843279;29;20056;-76
2022/09/07 05:31:09;;;;;;;11.35;3.33;;;;;;;;;;4842781;29;20052;-74
2022/09/07 05:33:35;;;;;;;10.40;3.63;;;;;;;;;;4845115;29;20045;-74
2022/09/07 05:36:02;;;;;;;9.57;3.28;;;;;;;;;;4846378;29;20073;-74
2022/09/07 05:38:29;;;;;;;5.00;3.00;;;;;;;;;;4846178;29;20060;-74
2022/09/07 05:40:55;;;;;;;8.80;3.25;;;;;;;;;;4846005;29;20069;-74
2022/09/07 05:43:21;;;;;;;7.65;3.00;;;;;;;;;;4845879;29;20042;-74
2022/09/07 05:45:48;;;;;;;10.55;2.80;;;;;;;;;;4846512;29;20068;-74
2022/09/07 05:48:14;;;;;;;10.23;3.28;;;;;;;;;;4846366;29;20045;-74
2022/09/07 05:50:48;;;;;;;8.93;3.25;;;;;;;;;;4846066;29;20426;-74
2022/09/07 05:53:14;;;;;;;7.88;4.10;;;;;;;;;;4845653;29;20050;-75
2022/09/07 05:55:41;;;;;;;7.97;2.80;;;;;;;;;;4846016;29;20054;-74
2022/09/07 05:58:07;;;;;;;7.30;2.80;;;;;;;;;;4845611;29;20045;-74
2022/09/07 06:00:33;;;;;;;6.55;2.85;;;;;;;;;;4845973;29;20056;-75
2022/09/07 06:03:00;;;;;;;6.97;2.88;;;;;;;;;;4845329;29;20049;-74
2022/09/07 06:05:26;;;;;;;7.78;2.95;;;;;;;;;;4844548;29;20049;-74
2022/09/07 06:07:53;;;;;;;6.15;3.10;;;;;;;;;;4846202;29;20046;-74
2022/09/07 06:10:19;;;;;;;10.90;3.83;;;;;;;;;;4846407;29;20077;-77
2022/09/07 06:12:45;;;;;;;11.20;3.20;;;;;;;;;;4846964;29;20038;-77
2022/09/07 06:15:12;;;;;;;5.90;2.78;;;;;;;;;;4846575;29;20050;-73
2022/09/07 06:17:38;;;;;;;6.45;2.90;;;;;;;;;;4845926;29;20077;-73
2022/09/07 06:20:05;;;;;;;8.70;2.83;;;;;;;;;;4846202;29;20084;-73
2022/09/07 06:22:31;;;;;;;4.90;2.53;;;;;;;;;;4846708;29;20056;-73
2022/09/07 06:24:58;;;;;;;8.93;2.92;;;;;;;;;;4842368;29;20049;-73
2022/09/07 06:27:24;;;;;;;7.68;3.08;;;;;;;;;;4832990;29;20038;-73
2022/09/07 06:29:50;;;;;;;8.90;2.70;;;;;;;;;;4836364;29;20050;-72
2022/09/07 06:32:16;;;;;;;8.98;3.20;;;;;;;;;;4838032;29;20169;-73
2022/09/07 06:34:42;;;;;;;5.80;2.70;;;;;;;;;;4846383;29;20501;-73
2022/09/07 06:37:09;;;;;;;7.13;2.60;;;;;;;;;;4843744;29;20042;-73
2022/09/07 06:39:36;;;;;;;10.98;3.13;;;;;;;;;;4844243;29;20045;-73
2022/09/07 06:42:03;;;;;;;8.10;2.50;;;;;;;;;;4846349;29;20041;-73
2022/09/07 06:44:29;;;;;;;5.30;2.85;;;;;;;;;;4839710;29;20610;-73
2022/09/07 06:46:56;;;;;;;5.82;2.75;;;;;;;;;;4834998;29;20038;-77
2022/09/07 06:49:22;;;;;;;9.23;3.15;;;;;;;;;;4840998;29;20195;-77
2022/09/07 06:51:48;;;;;;;11.45;3.10;;;;;;;;;;4841467;29;20054;-77
2022/09/07 06:54:15;;;;;;;10.95;3.38;;;;;;;;;;4828923;29;20051;-77
2022/09/07 06:56:41;;;;;;;12.10;2.85;;;;;;;;;;4845363;29;20052;-77
2022/09/07 06:59:07;;;;;;;12.38;3.45;;;;;;;;;;4836781;29;20054;-76
2022/09/07 07:01:33;;;;;;;8.73;3.22;;;;;;;;;;4837090;29;20056;-77
2022/09/07 07:04:00;;;;;;;6.47;2.78;;;;;;;;;;4839293;29;20050;-77
2022/09/07 07:06:36;;;;;;;12.43;2.83;;;;;;;;;;4831304;29;20049;-77
2022/09/07 07:09:03;;;;;;;7.95;2.97;;;;;;;;;;4841989;29;20416;-77
2022/09/07 07:11:30;;;;;;;6.57;2.67;;;;;;;;;;4843458;29;20540;-76
2022/09/07 07:13:56;;;;;;;14.18;3.53;;;;;;;;;;4829579;29;20042;-77
2022/09/07 07:16:23;;;;;;;8.57;2.70;;;;;;;;;;4845187;29;20073;-77
2022/09/07 07:18:51;;;;;;;7.13;2.92;;;;;;;;;;4844959;29;20186;-77
2022/09/07 07:21:18;;;;;;;8.23;2.63;;;;;;;;;;4845601;29;20050;-77
2022/09/07 07:23:44;;;;;;;10.88;2.97;;;;;;;;;;4844974;29;20046;-77
2022/09/07 07:26:12;;;;;;;6.95;2.67;;;;;;;;;;4844638;29;20545;-77
2022/09/07 07:28:39;;;;;;;7.25;2.67;;;;;;;;;;4844688;29;20057;-77
2022/09/07 07:31:06;;;;;;;11.13;2.72;;;;;;;;;;4845341;29;20038;-78
2022/09/07 07:33:33;;;;;;;6.90;2.80;;;;;;;;;;4845709;29;20042;-77
2022/09/07 07:36:08;;;;;;;9.60;2.92;;;;;;;;;;4845480;29;20045;-77
2022/09/07 07:38:34;;;;;;;11.20;2.97;;;;;;;;;;4845000;29;20042;-77
2022/09/07 07:41:01;;;;;;;9.63;2.72;;;;;;;;;;4844480;29;20042;-77
2022/09/07 07:43:27;;;;;;;13.25;3.33;;;;;;;;;;4844555;29;20046;-77
2022/09/07 07:45:54;;;;;;;7.90;2.40;;;;;;;;;;4844599;29;20199;-77
2022/09/07 07:48:20;;;;;;;9.90;2.63;;;;;;;;;;4844358;29;20050;-77
2022/09/07 07:50:57;;;;;;;7.57;2.70;;;;;;;;;;4844396;29;20061;-77
2022/09/07 07:53:23;;;;;;;6.38;2.50;;;;;;;;;;4843889;29;20038;-76
2022/09/07 07:55:49;;;;;;;5.75;2.42;;;;;;;;;;4843735;29;20063;-77
2022/09/07 07:58:15;;;;;;;8.90;2.95;;;;;;;;;;4844281;29;20046;-77
2022/09/07 08:00:43;;;;;;;9.05;2.60;;;;;;;;;;4844078;29;20114;-77
2022/09/07 08:03:09;;;;;;;8.80;2.60;;;;;;;;;;4843938;29;20054;-77
2022/09/07 08:05:36;;;;;;;9.13;3.10;;;;;;;;;;4844447;29;20056;-77
2022/09/07 08:08:02;;;;;;;8.15;2.63;;;;;;;;;;4843891;29;20510;-77
2022/09/07 08:10:29;;;;;;;9.23;2.78;;;;;;;;;;4844078;29;20050;-77
2022/09/07 08:12:55;;;;;;;11.32;3.08;;;;;;;;;;4844865;29;20052;-77
2022/09/07 08:15:22;;;;;;;10.50;2.40;;;;;;;;;;4843968;29;20050;-77
2022/09/07 08:17:48;;;;;;;7.57;2.75;;;;;;;;;;4844338;29;20057;-77
2022/09/07 08:20:15;;;;;;;6.25;2.15;;;;;;;;;;4844197;29;20137;-77
2022/09/07 08:22:41;;;;;;;7.93;2.83;;;;;;;;;;4843902;29;20061;-77
2022/09/07 08:25:07;;;;;;;6.43;2.30;;;;;;;;;;4844132;29;20077;-78
2022/09/07 08:27:34;;;;;;;6.15;1.98;;;;;;;;;;4843727;29;20355;-77
2022/09/07 08:30:00;;;;;;;9.55;2.42;;;;;;;;;;4844036;29;20118;-78
2022/09/07 08:32:28;;;;;;;5.47;2.05;;;;;;;;;;4843491;29;20124;-78
2022/09/07 08:34:55;;;;;;;7.43;2.08;;;;;;;;;;4843997;29;20054;-77
2022/09/07 08:37:21;;;;;;;7.20;1.80;;;;;;;;;;4844083;29;20136;-77
2022/09/07 08:39:47;;;;;;;6.60;1.65;;;;;;;;;;4843940;29;20098;-77
2022/09/07 08:42:14;;;;;;;6.13;1.75;;;;;;;;;;4844150;29;20085;-77
2022/09/07 08:44:43;;;;;;;5.95;1.88;;;;;;;;;;4830156;29;20058;-77
2022/09/07 08:47:21;;;;;;;5.72;1.65;;;;;;;;;;4838551;29;20091;-77
2022/09/07 08:49:59;;;;;;;7.40;1.48;;;;;;;;;;4844319;29;20049;-77
2022/09/07 08:52:27;;;;;;;5.00;1.77;;;;;;;;;;4843666;29;20090;-77
2022/09/07 08:55:13;;;;;;;5.30;1.70;;;;;;;;;;4838292;29;20371;-77
2022/09/07 08:57:43;;;;;;;4.35;1.65;;;;;;;;;;4835620;29;20045;-77
2022/09/07 09:00:13;;;;;;;5.32;1.40;;;;;;;;;;4833391;29;20050;-82
2022/09/07 09:02:39;;;;;;;3.88;1.60;;;;;;;;;;4843938;29;20077;-77
2022/09/07 09:05:14;;;;;;;5.07;1.80;;;;;;;;;;4843420;29;20045;-80
2022/09/07 09:07:48;;;;;;;10.52;1.88;;;;;;;;;;4845912;29;20394;-78
2022/09/07 09:10:28;;;;;;;3.95;1.40;;;;;;;;;;4847446;29;20125;-79
2022/09/07 09:13:03;;;;;;;2.97;1.50;;;;;;;;;;4848339;29;20045;-82
2022/09/07 09:15:30;;;;;;;6.00;1.60;;;;;;;;;;4847508;29;20053;-82
2022/09/07 09:17:57;;;;;;;4.50;1.80;;;;;;;;;;4846964;29;20046;-79
2022/09/07 09:20:23;;;;;;;5.78;1.60;;;;;;;;;;4847580;29;20497;-78
2022/09/07 09:22:50;;;;;;;2.78;1.40;;;;;;;;;;4847286;29;20046;-79
2022/09/07 09:25:46;;;;;;;5.10;1.55;;;;;;;;;;4847252;29;20056;-80
2022/09/07 09:28:12;;;;;;;5.30;1.55;;;;;;;;;;4846477;29;20102;-81
2022/09/07 09:30:38;;;;;;;5.47;1.63;;;;;;;;;;4847138;29;20042;-81
2022/09/07 09:33:16;;;;;;;5.50;1.80;;;;;;;;;;4847613;29;20053;-81
2022/09/07 09:35:42;;;;;;;4.70;1.65;;;;;;;;;;4861443;29;20050;-79
2022/09/07 09:38:30;;;;;;;5.35;1.70;;;;;;;;;;4847203;29;20042;-79
2022/09/07 09:40:58;;;;;;;6.20;1.33;;;;;;;;;;4847772;29;20073;-79
2022/09/07 09:43:26;;;;;;;4.18;1.67;;;;;;;;;;4847431;29;20046;-80
2022/09/07 09:45:54;;;;;;;4.88;1.50;;;;;;;;;;4860350;29;20422;-79
2022/09/07 09:48:25;;;;;;;5.00;1.70;;;;;;;;;;4846447;29;20494;-80
2022/09/07 09:50:53;;;;;;;3.83;1.48;;;;;;;;;;4846056;29;20065;-76
2022/09/07 09:53:24;;;;;;;5.50;1.60;;;;;;;;;;4845641;29;20045;-78
2022/09/07 09:55:51;;;;;;;4.20;1.60;;;;;;;;;;4836545;29;20605;-78
2022/09/07 09:58:31;;;;;;;5.32;1.75;;;;;;;;;;4832896;29;20054;-79
2022/09/07 10:01:00;;;;;;;7.67;1.83;;;;;;;;;;4831814;29;20046;-79
2022/09/07 10:03:27;;;;;;;4.07;1.35;;;;;;;;;;4836431;29;20328;-78
2022/09/07 10:05:53;;;;;;;4.75;1.80;;;;;;;;;;4845079;29;20034;-79
2022/09/07 10:08:23;;;;;;;2.88;1.38;;;;;;;;;;4833842;29;20082;-77
2022/09/07 10:10:52;;;;;;;7.07;1.70;;;;;;;;;;4826082;29;20080;-77
2022/09/07 10:13:23;;;;;;;3.58;1.83;;;;;;;;;;4828472;29;20112;-77
2022/09/07 10:15:53;;;;;;;13.13;1.65;;;;;;;;;;4832419;29;20121;-77
2022/09/07 10:18:26;;;;;;;4.47;1.92;;;;;;;;;;4825701;29;20138;-77
2022/09/07 10:20:53;;;;;;;8.18;1.58;;;;;;;;;;4834990;29;20050;-79
2022/09/07 10:23:20;;;;;;;10.07;1.95;;;;;;;;;;4826393;29;20073;-79
2022/09/07 10:25:46;;;;;;;5.63;1.67;;;;;;;;;;4827360;29;20513;-79
2022/09/07 10:28:19;;;;;;;7.22;2.00;;;;;;;;;;4839123;29;20375;-79
2022/09/07 10:30:48;;;;;;;5.53;1.83;;;;;;;;;;4844561;29;20485;-79
2022/09/07 10:33:26;;;;;;;4.65;1.63;;;;;;;;;;4844042;29;20107;-79
2022/09/07 10:36:07;;;;;;;5.30;1.42;;;;;;;;;;4845586;29;20054;-79
2022/09/07 10:38:36;;;;;;;3.45;1.70;;;;;;;;;;4845304;29;20102;-79
2022/09/07 10:41:06;;;;;;;4.55;1.50;;;;;;;;;;4845819;29;20045;-80
2022/09/07 10:43:41;;;;;;;3.85;1.50;;;;;;;;;;4846228;29;20042;-79
2022/09/07 10:46:12;;;;;;;8.20;1.90;;;;;;;;;;4845587;29;20085;-79
2022/09/07 10:48:57;;;;;;;4.32;1.52;;;;;;;;;;4846016;29;20156;-79
2022/09/07 10:51:26;;;;;;;7.07;1.80;;;;;;;;;;4846119;29;20042;-79
2022/09/07 10:54:00;;;;;;;7.30;1.75;;;;;;;;;;4845868;29;20052;-79
2022/09/07 10:56:32;;;;;;;5.20;1.70;;;;;;;;;;4860378;29;20439;-79
2022/09/07 10:59:10;;;;;;;8.90;2.00;;;;;;;;;;4845637;29;20056;-79
2022/09/07 11:01:50;;;;;;;7.43;1.70;;;;;;;;;;4845377;29;20057;-80
2022/09/07 11:04:22;;;;;;;5.45;1.60;;;;;;;;;;4845668;29;20077;-79
2022/09/07 11:06:50;;;;;;;7.82;2.20;;;;;;;;;;4845036;29;20525;-79
2022/09/07 11:09:35;;;;;;;3.40;1.73;;;;;;;;;;4845356;29;20409;-79
2022/09/07 11:12:07;;;;;;;7.53;1.80;;;;;;;;;;4845966;29;20084;-79
2022/09/07 11:14:45;;;;;;;4.65;1.80;;;;;;;;;;4845307;29;20053;-79
2022/09/07 11:17:13;;;;;;;6.05;1.80;;;;;;;;;;4845307;29;20430;-79
2022/09/07 11:19:43;;;;;;;5.78;1.67;;;;;;;;;;4845248;29;20046;-79
2022/09/07 11:22:25;;;;;;;6.15;1.77;;;;;;;;;;4845264;29;20048;-79
2022/09/07 11:25:14;;;;;;;6.88;2.10;;;;;;;;;;4845413;29;20077;-79
2022/09/07 11:27:46;;;;;;;5.40;1.80;;;;;;;;;;4845178;29;20081;-79
2022/09/07 11:30:13;;;;;;;3.38;1.40;;;;;;;;;;4844717;29;20086;-79
2022/09/07 11:32:44;;;;;;;7.55;1.90;;;;;;;;;;4845601;29;20117;-80
2022/09/07 11:35:13;;;;;;;4.28;1.90;;;;;;;;;;4845109;29;20049;-79
2022/09/07 11:37:45;;;;;;;6.47;1.55;;;;;;;;;;4844538;29;20042;-79
2022/09/07 11:40:11;;;;;;;8.30;2.05;;;;;;;;;;4844931;29;20038;-79
2022/09/07 11:42:52;;;;;;;8.77;2.30;;;;;;;;;;4844821;29;20046;-79
2022/09/07 11:45:18;;;;;;;;;;;;;;;;;;4845572;29;20118;-76
2022/09/07 11:47:47;;;;;;;8.60;1.85;;;;;;;;;;4844743;29;20317;-75
2022/09/07 11:50:18;;;;;;;5.32;1.70;;;;;;;;;;4844997;29;20072;-76
2022/09/07 11:52:48;;;;;;;5.10;1.85;;;;;;;;;;4844641;29;20471;-76
2022/09/07 11:55:14;;;;;;;;;;;;;;;;;;4845467;29;20054;-76
2022/09/07 11:57:50;;;;;;;5.85;1.88;;;;;;;;;;4844579;29;19960;-76
2022/09/07 12:00:21;;;;;;;9.05;2.15;;;;;;;;;;4844438;29;20101;-76
2022/09/07 12:02:53;;;;;;;8.65;2.55;;;;;;;;;;4844903;29;20049;-76
2022/09/07 12:05:22;;;;;;;5.80;1.85;;;;;;;;;;4844711;29;20069;-76
2022/09/07 12:07:54;;;;;;;7.28;2.20;;;;;;;;;;4844484;29;20049;-76
2022/09/07 12:10:35;;;;;;;6.10;2.10;;;;;;;;;;4844408;29;20089;-76
2022/09/07 12:13:19;;;;;;;6.57;2.20;;;;;;;;;;4844997;29;20042;-76
2022/09/07 12:16:03;;;;;;;6.50;2.22;;;;;;;;;;4844270;29;20034;-76
2022/09/07 12:18:48;;;;;;;7.70;2.50;;;;;;;;;;4844411;29;20088;-76
2022/09/07 12:21:33;;;;;;;12.32;2.58;;;;;;;;;;4844896;29;20470;-76
2022/09/07 12:23:59;;;;;;;8.75;1.83;;;;;;;;;;4844480;29;20049;-76
2022/09/07 12:26:38;;;;;;;9.90;2.30;;;;;;;;;;4844991;29;20132;-76
2022/09/07 12:29:05;;;;;;;9.98;2.40;;;;;;;;;;4844036;29;20404;-76
2022/09/07 12:31:41;;;;;;;8.73;2.10;;;;;;;;;;4844417;29;20050;-76
2022/09/07 12:34:26;;;;;;;6.60;2.35;;;;;;;;;;4844283;29;20042;-76
2022/09/07 12:36:52;;;;;;;10.15;2.38;;;;;;;;;;4844237;29;20046;-76
2022/09/07 12:39:20;;;;;;;8.55;2.20;;;;;;;;;;4844289;29;20056;-76
2022/09/07 12:41:50;;;;;;;8.55;2.40;;;;;;;;;;4843977;29;20045;-76
2022/09/07 12:44:18;;;;;;;10.38;2.40;;;;;;;;;;4839253;29;20058;-77
2022/09/07 12:46:45;;;;;;;6.57;2.28;;;;;;;;;;4836757;29;20038;-76
2022/09/07 12:49:11;;;;;;;7.93;2.75;;;;;;;;;;4843888;29;20140;-76
2022/09/07 12:51:38;;;;;;;3.70;2.20;;;;;;;;;;4826074;29;20050;-75
2022/09/07 12:54:05;;;;;;;13.88;2.78;;;;;;;;;;4842209;29;20375;-73
2022/09/07 12:56:34;;;;;;;10.60;3.33;;;;;;;;;;4844037;29;20203;-74
2022/09/07 12:59:12;;;;;;;13.40;3.40;;;;;;;;;;4844047;29;20048;-74
2022/09/07 13:01:44;;;;;;;17.98;5.13;;;;;;;;;;4835330;29;20053;-74
2022/09/07 13:04:17;;;;;;;10.27;2.90;;;;;;;;;;4838519;29;20046;-74
2022/09/07 13:06:55;;;;;;;10.45;3.08;;;;;;;;;;4841700;29;20397;-74
2022/09/07 13:09:24;;;;;;;7.80;2.42;;;;;;;;;;4825741;29;20153;-74
2022/09/07 13:11:50;;;;;;;5.95;2.58;;;;;;;;;;4826135;29;20043;-74
2022/09/07 13:14:19;;;;;;;8.45;2.60;;;;;;;;;;4831553;29;20494;-74
2022/09/07 13:16:46;;;;;;;5.47;2.22;;;;;;;;;;4842477;29;20038;-74
2022/09/07 13:19:32;;;;;;;5.95;2.58;;;;;;;;;;4844050;29;20049;-74
2022/09/07 13:21:59;;;;;;;10.13;2.95;;;;;;;;;;4837898;29;20054;-74
2022/09/07 13:24:35;;;;;;;10.60;2.42;;;;;;;;;;4837128;29;20054;-75
2022/09/07 13:27:01;;;;;;;9.32;3.20;;;;;;;;;;4843543;29;20642;-75
2022/09/07 13:29:43;;;;;;;8.60;2.83;;;;;;;;;;4833469;29;20502;-75
2022/09/07 13:32:14;;;;;;;10.18;2.90;;;;;;;;;;4825880;29;20045;-75
2022/09/07 13:35:00;;;;;;;9.18;2.75;;;;;;;;;;4824942;29;20106;-75
2022/09/07 13:37:27;;;;;;;12.55;2.75;;;;;;;;;;4824601;29;20125;-75
2022/09/07 13:39:54;;;;;;;17.20;3.40;;;;;;;;;;4836540;29;20060;-75
2022/09/07 13:42:34;;;;;;;12.35;2.70;;;;;;;;;;4843485;29;20129;-74
2022/09/07 13:45:02;;;;;;;8.15;2.75;;;;;;;;;;4843469;29;20066;-75
2022/09/07 13:47:41;;;;;;;8.73;2.80;;;;;;;;;;4842817;29;20064;-74
2022/09/07 13:50:07;;;;;;;10.95;2.67;;;;;;;;;;4843463;29;20046;-74
2022/09/07 13:52:43;;;;;;;9.63;2.92;;;;;;;;;;4843067;29;20054;-75
2022/09/07 13:55:28;;;;;;;12.35;3.10;;;;;;;;;;4845838;29;20106;-74
2022/09/07 13:58:26;;;;;;;9.85;2.90;;;;;;;;;;4846840;29;20038;-74
2022/09/07 14:01:04;;;;;;;8.63;2.88;;;;;;;;;;4845144;29;20128;-76
2022/09/07 14:03:36;;;;;;;10.57;2.70;;;;;;;;;;4846300;29;20037;-77
2022/09/07 14:06:14;;;;;;;10.80;2.78;;;;;;;;;;4846866;29;20046;-74
2022/09/07 14:08:41;;;;;;;8.90;2.53;;;;;;;;;;4846935;29;20057;-75
2022/09/07 14:11:21;;;;;;;8.63;3.13;;;;;;;;;;4846199;29;20049;-75
2022/09/07 14:14:05;;;;;;;7.60;2.70;;;;;;;;;;4846365;29;20090;-74
2022/09/07 14:16:32;;;;;;;11.90;3.15;;;;;;;;;;4846386;29;20124;-74
2022/09/07 14:18:58;;;;;;;11.57;2.65;;;;;;;;;;4846031;29;20046;-74
2022/09/07 14:21:24;;;;;;;9.60;2.92;;;;;;;;;;4846407;29;20053;-74
2022/09/07 14:23:50;;;;;;;12.93;3.30;;;;;;;;;;4845702;29;20042;-75
2022/09/07 14:26:18;;;;;;;11.57;2.80;;;;;;;;;;4845858;29;20042;-75
2022/09/07 14:28:46;;;;;;;10.30;3.38;;;;;;;;;;4845916;29;20210;-74
2022/09/07 14:31:13;;;;;;;10.00;2.97;;;;;;;;;;4846726;29;20077;-77
2022/09/07 14:33:42;;;;;;;10.10;2.70;;;;;;;;;;4846056;29;20053;-77
2022/09/07 14:36:09;;;;;;;8.70;2.92;;;;;;;;;;4845644;29;20045;-77
2022/09/07 14:38:36;;;;;;;12.10;3.17;;;;;;;;;;4845715;29;20090;-77
2022/09/07 14:41:04;;;;;;;10.35;2.90;;;;;;;;;;4846012;29;20042;-77
2022/09/07 14:43:34;;;;;;;12.98;3.30;;;;;;;;;;4845921;29;20038;-77
2022/09/07 14:46:27;;;;;;;9.82;2.90;;;;;;;;;;4839051;29;20054;-78
2022/09/07 14:48:55;;;;;;;9.05;2.90;;;;;;;;;;4836904;29;20133;-77
2022/09/07 14:51:25;;;;;;;12.63;3.10;;;;;;;;;;4841252;29;20106;-77
2022/09/07 14:53:55;;;;;;;6.60;2.72;;;;;;;;;;4827331;29;20491;-77